Terminal Aerodrome Forecast
Issued by NWS Central Illinois

Home | Current Version | Previous Version | Text Only | Print | Product List | Glossary On
Versions: 1 2 3 4 5 6 7 8 9 10 11 12 13 14 15 16 17 18 19 20 21 22 23
000
FTUS43 KILX 161700
TAFSPI
TAF
KSPI 161734Z 1618/1718 17022G30KT P6SM SCT150
     FM170200 16013KT P6SM SCT250
     FM170300 17008KT P6SM SCT100
     FM171000 19009KT P6SM BKN070
     FM171400 27008KT P6SM BKN050=

USA.gov is the U.S. government's official web portal to all federal, state and local government web resources and services.